PWSweather.com
Personal Weather Stations
Station Observations
IKIEVKIE
KyivUA 01103

KyivUA 01103

Lat: 50.428, Lon: 30.553

Elevation: 502

Station Type: Davis Vantage Vue 6250

Latest ConditionsUpdated 11:11:02 PM GMT+02:02 Saturday, Jul 21, 2018
Currently Today's Max Today's Min Today's Average
Temperature 66.6°F19.2°C 83.1°F28.4°C 65.9°F18.8°C 71.6°F22.0°C
Dew Point 65.1°F18.4°C 71.3°F21.8°C 64.3°F17.9°C 67.2°F19.6°C
Winds 1.0 mph S1.6 kmh S 3.0 mph -4.8 kmh - - 1.0 mph 1.6 kmh
Wind Gusts 5.0 mph8.0 kmh 10.0 mph16.1 kmh - -
Humidity 95% 96% 61% 87%
Pressure 29.70 in1005.8 mb 29.72 in1006.4 mb 29.64 in1003.7 mb -
Hour Temp Dew Point Humidity Winds Wind Gusts Pressure Precip Precip Rate Daily Precip Total
11:11 PM 66.6°F19.2°C 65.1°F18.4°C 95% 1.0 mph S1.6 kmh S 5.0 mph8.0 kmh 29.70 in1005.8 mb 0.00 in0.0 mm 0.00 in0.0 mm 0.40 in10.2 mm
11:06 PM 66.6°F19.2°C 65.1°F18.4°C 95% 1.0 mph SE1.6 kmh SE 5.0 mph8.0 kmh 29.70 in1005.8 mb 0.00 in0.0 mm 0.00 in0.0 mm 0.40 in10.2 mm
11:00 PM 66.6°F19.2°C 65.1°F18.4°C 95% 2.1 mph S3.4 kmh S 5.0 mph8.0 kmh 29.70 in1005.8 mb 0.00 in0.0 mm 0.00 in0.0 mm 0.41 in10.4 mm
10:55 PM 66.6°F19.2°C 65.1°F18.4°C 95% 1.6 mph WSW2.6 kmh WSW 5.0 mph8.0 kmh 29.70 in1005.8 mb 0.00 in0.0 mm 0.00 in0.0 mm 0.41 in10.4 mm
10:50 PM 66.6°F19.2°C 65.1°F18.4°C 95% Calm Calm 4.0 mph6.4 kmh 29.70 in1005.8 mb 0.00 in0.0 mm 0.00 in0.0 mm 0.41 in10.4 mm
10:45 PM 66.6°F19.2°C 65.1°F18.4°C 95% 1.0 mph S1.6 kmh S 5.0 mph8.0 kmh 29.69 in1005.4 mb 0.00 in0.0 mm 0.00 in0.0 mm 0.41 in10.4 mm
10:40 PM 66.6°F19.2°C 65.1°F18.4°C 95% 1.9 mph W3.1 kmh W 6.0 mph9.7 kmh 29.69 in1005.4 mb 0.00 in0.0 mm 0.00 in0.0 mm 0.41 in10.4 mm
10:35 PM 66.6°F19.2°C 65.1°F18.4°C 95% 1.1 mph S1.8 kmh S 6.0 mph9.7 kmh 29.69 in1005.4 mb 0.00 in0.0 mm 0.00 in0.0 mm 0.41 in10.4 mm
10:30 PM 66.6°F19.2°C 65.1°F18.4°C 95% 2.4 mph SE3.9 kmh SE 6.0 mph9.7 kmh 29.69 in1005.4 mb 0.00 in0.0 mm 0.00 in0.0 mm 0.41 in10.4 mm
10:25 PM 66.6°F19.2°C 65.1°F18.4°C 95% 2.1 mph SSW3.4 kmh SSW 6.0 mph9.7 kmh 29.69 in1005.4 mb 0.00 in0.0 mm 0.00 in0.0 mm 0.41 in10.4 mm
10:20 PM 66.6°F19.2°C 65.1°F18.4°C 95% 1.5 mph N2.4 kmh N 4.0 mph6.4 kmh 29.70 in1005.8 mb 0.00 in0.0 mm 0.00 in0.0 mm 0.41 in10.4 mm
10:15 PM 66.6°F19.2°C 65.1°F18.4°C 95% 1.5 mph SE2.4 kmh SE 5.0 mph8.0 kmh 29.70 in1005.8 mb 0.00 in0.0 mm 0.00 in0.0 mm 0.41 in10.4 mm
10:10 PM 66.6°F19.2°C 65.1°F18.4°C 95% 1.0 mph ESE1.6 kmh ESE 5.0 mph8.0 kmh 29.70 in1005.8 mb 0.00 in0.0 mm 0.00 in0.0 mm 0.41 in10.4 mm
10:05 PM 66.6°F19.2°C 65.4°F18.6°C 96% 1.5 mph W2.4 kmh W 5.0 mph8.0 kmh 29.70 in1005.8 mb 0.00 in0.0 mm 0.00 in0.0 mm 0.41 in10.4 mm
10:00 PM 66.6°F19.2°C 65.4°F18.6°C 96% 1.8 mph SSW2.9 kmh SSW 4.0 mph6.4 kmh 29.70 in1005.8 mb 0.00 in0.0 mm 0.00 in0.0 mm 0.41 in10.4 mm
09:55 PM 66.6°F19.2°C 65.4°F18.6°C 96% 1.0 mph SE1.6 kmh SE 4.0 mph6.4 kmh 29.70 in1005.8 mb 0.00 in0.0 mm 0.00 in0.0 mm 0.41 in10.4 mm
09:50 PM 66.7°F19.3°C 65.5°F18.6°C 96% 1.3 mph ESE2.1 kmh ESE 3.0 mph4.8 kmh 29.70 in1005.8 mb 0.00 in0.0 mm 0.00 in0.0 mm 0.41 in10.4 mm
09:45 PM 66.7°F19.3°C 65.5°F18.6°C 96% Calm Calm 5.0 mph8.0 kmh 29.70 in1005.8 mb 0.00 in0.0 mm 0.00 in0.0 mm 0.41 in10.4 mm
09:40 PM 66.6°F19.2°C 65.4°F18.6°C 96% 1.0 mph S1.6 kmh S 5.0 mph8.0 kmh 29.70 in1005.8 mb 0.00 in0.0 mm 0.00 in0.0 mm 0.41 in10.4 mm
09:35 PM 66.7°F19.3°C 65.5°F18.6°C 96% 1.0 mph SE1.6 kmh SE 5.0 mph8.0 kmh 29.70 in1005.8 mb 0.01 in0.3 mm 0.00 in0.0 mm 0.41 in10.4 mm
09:30 PM 66.6°F19.2°C 65.4°F18.6°C 96% 1.5 mph N2.4 kmh N 6.0 mph9.7 kmh 29.70 in1005.8 mb 0.01 in0.3 mm 0.00 in0.0 mm 0.41 in10.4 mm
09:24 PM 66.6°F19.2°C 65.4°F18.6°C 96% 1.5 mph SW2.4 kmh SW 6.0 mph9.7 kmh 29.70 in1005.8 mb 0.01 in0.3 mm 0.00 in0.0 mm 0.41 in10.4 mm
09:19 PM 66.6°F19.2°C 65.4°F18.6°C 96% 1.1 mph SE1.8 kmh SE 6.0 mph9.7 kmh 29.70 in1005.8 mb 0.01 in0.3 mm 0.00 in0.0 mm 0.41 in10.4 mm
09:14 PM 66.6°F19.2°C 65.4°F18.6°C 96% 2.1 mph WSW3.4 kmh WSW 6.0 mph9.7 kmh 29.70 in1005.8 mb 0.02 in0.5 mm 0.00 in0.0 mm 0.41 in10.4 mm
09:09 PM 66.6°F19.2°C 65.4°F18.6°C 96% 1.0 mph S1.6 kmh S 3.0 mph4.8 kmh 29.70 in1005.8 mb 0.02 in0.5 mm 0.00 in0.0 mm 0.41 in10.4 mm
09:04 PM 66.7°F19.3°C 65.5°F18.6°C 96% 1.1 mph S1.8 kmh S 6.0 mph9.7 kmh 29.70 in1005.8 mb 0.03 in0.8 mm 0.00 in0.0 mm 0.41 in10.4 mm
08:59 PM 66.7°F19.3°C 65.5°F18.6°C 96% 1.0 mph SW1.6 kmh SW 6.0 mph9.7 kmh 29.70 in1005.8 mb 0.03 in0.8 mm 0.00 in0.0 mm 0.40 in10.2 mm
08:54 PM 66.7°F19.3°C 65.5°F18.6°C 96% 1.1 mph S1.8 kmh S 6.0 mph9.7 kmh 29.70 in1005.8 mb 0.03 in0.8 mm 0.00 in0.0 mm 0.40 in10.2 mm
08:49 PM 66.7°F19.3°C 65.5°F18.6°C 96% 1.6 mph S2.6 kmh S 6.0 mph9.7 kmh 29.70 in1005.8 mb 0.04 in1.0 mm 0.00 in0.0 mm 0.40 in10.2 mm
08:43 PM 66.6°F19.2°C 65.1°F18.4°C 95% 1.0 mph SE1.6 kmh SE 3.0 mph4.8 kmh 29.70 in1005.8 mb 0.04 in1.0 mm 0.00 in0.0 mm 0.40 in10.2 mm
08:38 PM 66.6°F19.2°C 65.1°F18.4°C 95% 1.6 mph E2.6 kmh E 4.0 mph6.4 kmh 29.70 in1005.8 mb 0.04 in1.0 mm 0.12 in3.0 mm 0.40 in10.2 mm
08:33 PM 66.5°F19.2°C 65.0°F18.3°C 95% 1.0 mph SSW1.6 kmh SSW 4.0 mph6.4 kmh 29.70 in1005.8 mb 0.03 in0.8 mm 0.00 in0.0 mm 0.39 in9.9 mm
08:27 PM 66.5°F19.2°C 65.0°F18.3°C 95% 1.2 mph SW1.9 kmh SW 4.0 mph6.4 kmh 29.70 in1005.8 mb 0.03 in0.8 mm 0.00 in0.0 mm 0.39 in9.9 mm
08:22 PM 66.5°F19.2°C 65.0°F18.3°C 95% 1.0 mph ESE1.6 kmh ESE 5.0 mph8.0 kmh 29.70 in1005.8 mb 0.03 in0.8 mm 0.00 in0.0 mm 0.39 in9.9 mm
08:17 PM 66.5°F19.2°C 64.7°F18.2°C 94% 1.2 mph NNE1.9 kmh NNE 5.0 mph8.0 kmh 29.70 in1005.8 mb 0.05 in1.3 mm 0.00 in0.0 mm 0.39 in9.9 mm
08:12 PM 66.5°F19.2°C 64.7°F18.2°C 94% 1.0 mph SE1.6 kmh SE 5.0 mph8.0 kmh 29.70 in1005.8 mb 0.13 in3.3 mm 0.10 in2.5 mm 0.39 in9.9 mm
08:06 PM 66.5°F19.2°C 64.7°F18.2°C 94% 1.8 mph WSW2.9 kmh WSW 5.0 mph8.0 kmh 29.70 in1005.8 mb 0.12 in3.0 mm 0.00 in0.0 mm 0.38 in9.7 mm
08:01 PM 66.6°F19.2°C 64.8°F18.2°C 94% 1.5 mph WSW2.4 kmh WSW 6.0 mph9.7 kmh 29.69 in1005.4 mb 0.12 in3.0 mm 0.00 in0.0 mm 0.38 in9.7 mm
07:55 PM 66.6°F19.2°C 64.8°F18.2°C 94% 1.0 mph S1.6 kmh S 6.0 mph9.7 kmh 29.69 in1005.4 mb 0.12 in3.0 mm 0.12 in3.0 mm 0.38 in9.7 mm
07:50 PM 66.7°F19.3°C 64.6°F18.1°C 93% 1.2 mph S1.9 kmh S 5.0 mph8.0 kmh 29.70 in1005.8 mb 0.11 in2.8 mm 0.00 in0.0 mm 0.37 in9.4 mm
07:45 PM 66.8°F19.3°C 64.4°F18.0°C 92% 1.6 mph S2.6 kmh S 4.0 mph6.4 kmh 29.69 in1005.4 mb 0.11 in2.8 mm 0.00 in0.0 mm 0.37 in9.4 mm
07:39 PM 67.0°F19.4°C 64.3°F17.9°C 91% 1.0 mph SSW1.6 kmh SSW 7.0 mph11.3 kmh 29.70 in1005.8 mb 0.11 in2.8 mm 0.00 in0.0 mm 0.37 in9.4 mm
07:34 PM 67.4°F19.7°C 64.7°F18.2°C 91% 1.8 mph SSW2.9 kmh SSW 9.0 mph14.5 kmh 29.70 in1005.8 mb 0.11 in2.8 mm 0.00 in0.0 mm 0.37 in9.4 mm
07:29 PM 68.0°F20.0°C 64.6°F18.1°C 89% 1.8 mph SW2.9 kmh SW 9.0 mph14.5 kmh 29.70 in1005.8 mb 0.11 in2.8 mm 0.00 in0.0 mm 0.37 in9.4 mm
07:24 PM 69.0°F20.6°C 65.3°F18.5°C 88% 2.5 mph SW4.0 kmh SW 10.0 mph16.1 kmh 29.70 in1005.8 mb 0.11 in2.8 mm 0.12 in3.0 mm 0.36 in9.1 mm
07:19 PM 70.1°F21.2°C 65.7°F18.7°C 86% 2.1 mph SSE3.4 kmh SSE 10.0 mph16.1 kmh 29.72 in1006.4 mb 0.10 in2.5 mm 1.08 in27.4 mm 0.35 in8.9 mm
07:14 PM 71.5°F21.9°C 67.1°F19.5°C 86% 2.3 mph ESE3.7 kmh ESE 8.0 mph12.9 kmh 29.72 in1006.4 mb 0.01 in0.3 mm 0.12 in3.0 mm 0.27 in6.9 mm
07:09 PM 72.1°F22.3°C 69.0°F20.6°C 90% 1.0 mph E1.6 kmh E 4.0 mph6.4 kmh 29.71 in1006.1 mb 0.00 in0.0 mm 0.00 in0.0 mm 0.26 in6.6 mm
07:04 PM 72.2°F22.3°C 69.1°F20.6°C 90% 1.7 mph SW2.7 kmh SW 4.0 mph6.4 kmh 29.69 in1005.4 mb 0.00 in0.0 mm 0.00 in0.0 mm 0.26 in6.6 mm
06:58 PM 72.5°F22.5°C 69.1°F20.6°C 89% 1.1 mph SE1.8 kmh SE 4.0 mph6.4 kmh 29.69 in1005.4 mb 0.00 in0.0 mm 0.00 in0.0 mm 0.26 in6.6 mm
06:53 PM 72.8°F22.7°C 69.0°F20.6°C 88% 1.5 mph SE2.4 kmh SE 4.0 mph6.4 kmh 29.69 in1005.4 mb 0.00 in0.0 mm 0.00 in0.0 mm 0.26 in6.6 mm
06:48 PM 73.2°F22.9°C 69.1°F20.6°C 87% 1.1 mph S1.8 kmh S 4.0 mph6.4 kmh 29.69 in1005.4 mb 0.00 in0.0 mm 0.00 in0.0 mm 0.26 in6.6 mm
06:43 PM 73.7°F23.2°C 69.6°F20.9°C 87% 1.5 mph SW2.4 kmh SW 4.0 mph6.4 kmh 29.69 in1005.4 mb 0.00 in0.0 mm 0.00 in0.0 mm 0.26 in6.6 mm
06:38 PM 74.2°F23.4°C 69.8°F21.0°C 86% 1.3 mph S2.1 kmh S 2.0 mph3.2 kmh 29.68 in1005.1 mb 0.00 in0.0 mm 0.00 in0.0 mm 0.26 in6.6 mm
06:33 PM 74.6°F23.7°C 70.5°F21.4°C 87% 1.0 mph SSW1.6 kmh SSW 3.0 mph4.8 kmh 29.68 in1005.1 mb 0.00 in0.0 mm 0.00 in0.0 mm 0.26 in6.6 mm
06:28 PM 74.8°F23.8°C 70.7°F21.5°C 87% 1.0 mph E1.6 kmh E 4.0 mph6.4 kmh 29.68 in1005.1 mb 0.00 in0.0 mm 0.00 in0.0 mm 0.26 in6.6 mm
06:23 PM 74.5°F23.6°C 70.4°F21.3°C 87% 1.0 mph S1.6 kmh S 4.0 mph6.4 kmh 29.68 in1005.1 mb 0.00 in0.0 mm 0.00 in0.0 mm 0.26 in6.6 mm
06:18 PM 74.6°F23.7°C 70.2°F21.2°C 86% 1.0 mph E1.6 kmh E 4.0 mph6.4 kmh 29.68 in1005.1 mb 0.00 in0.0 mm 0.00 in0.0 mm 0.26 in6.6 mm
06:13 PM 74.9°F23.8°C 70.1°F21.2°C 85% 1.8 mph SSE2.9 kmh SSE 4.0 mph6.4 kmh 29.68 in1005.1 mb 0.00 in0.0 mm 0.00 in0.0 mm 0.26 in6.6 mm
06:08 PM 74.6°F23.7°C 70.5°F21.4°C 87% 1.0 mph SW1.6 kmh SW 3.0 mph4.8 kmh 29.68 in1005.1 mb 0.00 in0.0 mm 0.00 in0.0 mm 0.26 in6.6 mm
06:03 PM 74.1°F23.4°C 70.3°F21.3°C 88% Calm Calm 2.0 mph3.2 kmh 29.68 in1005.1 mb 0.00 in0.0 mm 0.00 in0.0 mm 0.26 in6.6 mm
05:58 PM 73.8°F23.2°C 69.7°F20.9°C 87% 1.5 mph WSW2.4 kmh WSW 2.0 mph3.2 kmh 29.68 in1005.1 mb 0.00 in0.0 mm 0.00 in0.0 mm 0.26 in6.6 mm
05:53 PM 73.9°F23.3°C 69.8°F21.0°C 87% Calm Calm 2.0 mph3.2 kmh 29.68 in1005.1 mb 0.00 in0.0 mm 0.00 in0.0 mm 0.26 in6.6 mm
05:47 PM 73.8°F23.2°C 70.0°F21.1°C 88% 1.2 mph SSE1.9 kmh SSE 2.0 mph3.2 kmh 29.68 in1005.1 mb 0.04 in1.0 mm 0.00 in0.0 mm 0.26 in6.6 mm
05:42 PM 73.5°F23.1°C 70.1°F21.2°C 89% 1.0 mph N1.6 kmh N 3.0 mph4.8 kmh 29.69 in1005.4 mb 0.08 in2.0 mm 0.00 in0.0 mm 0.26 in6.6 mm
05:37 PM 73.1°F22.8°C 70.3°F21.3°C 91% 1.0 mph SW1.6 kmh SW 3.0 mph4.8 kmh 29.68 in1005.1 mb 0.08 in2.0 mm 0.00 in0.0 mm 0.26 in6.6 mm
05:32 PM 72.6°F22.6°C 69.8°F21.0°C 91% 1.0 mph S1.6 kmh S 3.0 mph4.8 kmh 29.68 in1005.1 mb 0.08 in2.0 mm 0.00 in0.0 mm 0.26 in6.6 mm
05:27 PM 72.5°F22.5°C 69.7°F20.9°C 91% 1.7 mph SW2.7 kmh SW 4.0 mph6.4 kmh 29.69 in1005.4 mb 0.08 in2.0 mm 0.00 in0.0 mm 0.26 in6.6 mm
05:22 PM 72.6°F22.6°C 69.5°F20.8°C 90% 1.1 mph NW1.8 kmh NW 4.0 mph6.4 kmh 29.69 in1005.4 mb 0.08 in2.0 mm 0.00 in0.0 mm 0.26 in6.6 mm
05:17 PM 72.7°F22.6°C 69.6°F20.9°C 90% 1.0 mph S1.6 kmh S 2.0 mph3.2 kmh 29.69 in1005.4 mb 0.08 in2.0 mm 0.00 in0.0 mm 0.26 in6.6 mm
05:12 PM 72.9°F22.7°C 69.5°F20.8°C 89% 1.0 mph W1.6 kmh W 2.0 mph3.2 kmh 29.69 in1005.4 mb 0.08 in2.0 mm 0.00 in0.0 mm 0.26 in6.6 mm
05:07 PM 73.2°F22.9°C 69.4°F20.8°C 88% Calm Calm 2.0 mph3.2 kmh 29.69 in1005.4 mb 0.08 in2.0 mm 0.00 in0.0 mm 0.26 in6.6 mm
05:02 PM 73.5°F23.1°C 69.4°F20.8°C 87% 1.0 mph SE1.6 kmh SE 5.0 mph8.0 kmh 29.68 in1005.1 mb 0.08 in2.0 mm 0.00 in0.0 mm 0.26 in6.6 mm
04:57 PM 74.2°F23.4°C 69.4°F20.8°C 85% 1.0 mph ESE1.6 kmh ESE 6.0 mph9.7 kmh 29.68 in1005.1 mb 0.08 in2.0 mm 0.00 in0.0 mm 0.26 in6.6 mm
04:52 PM 74.8°F23.8°C 69.7°F20.9°C 84% 1.0 mph ESE1.6 kmh ESE 6.0 mph9.7 kmh 29.68 in1005.1 mb 0.08 in2.0 mm 0.72 in18.3 mm 0.26 in6.6 mm
04:47 PM 75.7°F24.3°C 69.2°F20.7°C 80% 1.4 mph SW2.3 kmh SW 4.0 mph6.4 kmh 29.69 in1005.4 mb 0.02 in0.5 mm 0.24 in6.1 mm 0.20 in5.1 mm
04:42 PM 76.3°F24.6°C 68.7°F20.4°C 77% 1.0 mph SW1.6 kmh SW 3.0 mph4.8 kmh 29.68 in1005.1 mb 0.00 in0.0 mm 0.00 in0.0 mm 0.17 in4.3 mm
04:37 PM 77.0°F25.0°C 68.9°F20.5°C 76% 1.2 mph SE1.9 kmh SE 4.0 mph6.4 kmh 29.68 in1005.1 mb 0.00 in0.0 mm 0.00 in0.0 mm 0.17 in4.3 mm
04:32 PM 77.8°F25.4°C 68.4°F20.2°C 73% 1.3 mph S2.1 kmh S 5.0 mph8.0 kmh 29.68 in1005.1 mb 0.00 in0.0 mm 0.00 in0.0 mm 0.17 in4.3 mm
04:27 PM 79.0°F26.1°C 68.4°F20.2°C 70% 1.5 mph SE2.4 kmh SE 5.0 mph8.0 kmh 29.68 in1005.1 mb 0.00 in0.0 mm 0.00 in0.0 mm 0.17 in4.3 mm
04:21 PM 80.4°F26.9°C 68.9°F20.5°C 68% 1.1 mph ESE1.8 kmh ESE 5.0 mph8.0 kmh 29.68 in1005.1 mb 0.00 in0.0 mm 0.00 in0.0 mm 0.17 in4.3 mm
04:16 PM 81.1°F27.3°C 69.5°F20.8°C 68% 1.4 mph NE2.3 kmh NE 5.0 mph8.0 kmh 29.67 in1004.7 mb 0.00 in0.0 mm 0.00 in0.0 mm 0.17 in4.3 mm
04:11 PM 81.3°F27.4°C 69.5°F20.8°C 67% 1.7 mph S2.7 kmh S 4.0 mph6.4 kmh 29.67 in1004.7 mb 0.00 in0.0 mm 0.00 in0.0 mm 0.17 in4.3 mm
04:06 PM 81.0°F27.2°C 70.3°F21.3°C 70% 1.0 mph SSW1.6 kmh SSW 4.0 mph6.4 kmh 29.67 in1004.7 mb 0.00 in0.0 mm 0.00 in0.0 mm 0.17 in4.3 mm
04:01 PM 80.6°F27.0°C 70.1°F21.2°C 70% 1.3 mph S2.1 kmh S 4.0 mph6.4 kmh 29.67 in1004.7 mb 0.00 in0.0 mm 0.00 in0.0 mm 0.17 in4.3 mm
03:56 PM 80.4°F26.9°C 69.9°F21.1°C 70% 1.2 mph WSW1.9 kmh WSW 3.0 mph4.8 kmh 29.68 in1005.1 mb 0.00 in0.0 mm 0.00 in0.0 mm 0.17 in4.3 mm
03:51 PM 79.8°F26.6°C 70.2°F21.2°C 72% 1.2 mph S1.9 kmh S 3.0 mph4.8 kmh 29.68 in1005.1 mb 0.00 in0.0 mm 0.00 in0.0 mm 0.17 in4.3 mm
03:46 PM 78.8°F26.0°C 69.6°F20.9°C 73% 1.4 mph SW2.3 kmh SW 3.0 mph4.8 kmh 29.68 in1005.1 mb 0.00 in0.0 mm 0.00 in0.0 mm 0.17 in4.3 mm
03:41 PM 77.6°F25.3°C 69.6°F20.9°C 76% 1.7 mph S2.7 kmh S 5.0 mph8.0 kmh 29.68 in1005.1 mb 0.00 in0.0 mm 0.00 in0.0 mm 0.17 in4.3 mm
03:36 PM 76.2°F24.6°C 69.7°F20.9°C 80% 1.1 mph SW1.8 kmh SW 5.0 mph8.0 kmh 29.68 in1005.1 mb 0.00 in0.0 mm 0.00 in0.0 mm 0.17 in4.3 mm
03:31 PM 75.4°F24.1°C 68.5°F20.3°C 79% 1.4 mph SE2.3 kmh SE 5.0 mph8.0 kmh 29.68 in1005.1 mb 0.00 in0.0 mm 0.00 in0.0 mm 0.17 in4.3 mm
03:26 PM 75.0°F23.9°C 68.9°F20.5°C 81% 2.1 mph S3.4 kmh S 5.0 mph8.0 kmh 29.68 in1005.1 mb 0.00 in0.0 mm 0.00 in0.0 mm 0.17 in4.3 mm
03:21 PM 74.6°F23.7°C 68.8°F20.4°C 82% 1.2 mph WSW1.9 kmh WSW 4.0 mph6.4 kmh 29.67 in1004.7 mb 0.00 in0.0 mm 0.00 in0.0 mm 0.17 in4.3 mm
03:16 PM 74.6°F23.7°C 68.1°F20.1°C 80% 1.4 mph WSW2.3 kmh WSW 4.0 mph6.4 kmh 29.67 in1004.7 mb 0.00 in0.0 mm 0.00 in0.0 mm 0.17 in4.3 mm
03:11 PM 74.8°F23.8°C 68.2°F20.1°C 80% 1.4 mph SW2.3 kmh SW 2.0 mph3.2 kmh 29.67 in1004.7 mb 0.00 in0.0 mm 0.00 in0.0 mm 0.17 in4.3 mm
03:06 PM 74.9°F23.8°C 68.3°F20.2°C 80% 1.0 mph SW1.6 kmh SW 2.0 mph3.2 kmh 29.68 in1005.1 mb 0.00 in0.0 mm 0.00 in0.0 mm 0.17 in4.3 mm
03:01 PM 75.1°F23.9°C 68.9°F20.5°C 81% Calm Calm 2.0 mph3.2 kmh 29.67 in1004.7 mb 0.00 in0.0 mm 0.00 in0.0 mm 0.17 in4.3 mm
02:56 PM 75.4°F24.1°C 68.4°F20.2°C 79% Calm Calm 2.0 mph3.2 kmh 29.67 in1004.7 mb 0.00 in0.0 mm 0.00 in0.0 mm 0.17 in4.3 mm
02:50 PM 75.8°F24.3°C 68.8°F20.4°C 79% Calm Calm 3.0 mph4.8 kmh 29.67 in1004.7 mb 0.00 in0.0 mm 0.00 in0.0 mm 0.17 in4.3 mm
02:45 PM 76.3°F24.6°C 68.6°F20.3°C 77% 1.3 mph E2.1 kmh E 4.0 mph6.4 kmh 29.67 in1004.7 mb 0.00 in0.0 mm 0.00 in0.0 mm 0.17 in4.3 mm
02:40 PM 76.4°F24.7°C 69.4°F20.8°C 79% 1.2 mph E1.9 kmh E 4.0 mph6.4 kmh 29.67 in1004.7 mb 0.00 in0.0 mm 0.00 in0.0 mm 0.17 in4.3 mm
02:35 PM 76.3°F24.6°C 68.9°F20.5°C 78% 1.6 mph NE2.6 kmh NE 4.0 mph6.4 kmh 29.67 in1004.7 mb 0.00 in0.0 mm 0.00 in0.0 mm 0.17 in4.3 mm
02:30 PM 76.4°F24.7°C 68.7°F20.4°C 77% 1.8 mph E2.9 kmh E 4.0 mph6.4 kmh 29.68 in1005.1 mb 0.00 in0.0 mm 0.00 in0.0 mm 0.17 in4.3 mm
02:25 PM 76.6°F24.8°C 70.0°F21.1°C 80% 1.1 mph N1.8 kmh N 2.0 mph3.2 kmh 29.68 in1005.1 mb 0.00 in0.0 mm 0.00 in0.0 mm 0.17 in4.3 mm
02:20 PM 75.8°F24.3°C 71.3°F21.8°C 86% 1.0 mph SSW1.6 kmh SSW 2.0 mph3.2 kmh 29.67 in1004.7 mb 0.01 in0.3 mm 0.00 in0.0 mm 0.17 in4.3 mm
02:15 PM 74.9°F23.8°C 69.8°F21.0°C 84% 1.2 mph E1.9 kmh E 3.0 mph4.8 kmh 29.67 in1004.7 mb 0.01 in0.3 mm 0.00 in0.0 mm 0.17 in4.3 mm
02:10 PM 74.5°F23.6°C 69.4°F20.8°C 84% 1.1 mph ESE1.8 kmh ESE 3.0 mph4.8 kmh 29.67 in1004.7 mb 0.01 in0.3 mm 0.00 in0.0 mm 0.17 in4.3 mm
02:05 PM 74.3°F23.5°C 69.9°F21.1°C 86% 1.2 mph E1.9 kmh E 3.0 mph4.8 kmh 29.67 in1004.7 mb 0.01 in0.3 mm 0.00 in0.0 mm 0.17 in4.3 mm
02:00 PM 73.7°F23.2°C 69.6°F20.9°C 87% 1.3 mph ESE2.1 kmh ESE 3.0 mph4.8 kmh 29.67 in1004.7 mb 0.01 in0.3 mm 0.00 in0.0 mm 0.17 in4.3 mm
01:55 PM 73.2°F22.9°C 69.1°F20.6°C 87% 1.4 mph SW2.3 kmh SW 3.0 mph4.8 kmh 29.67 in1004.7 mb 0.01 in0.3 mm 0.00 in0.0 mm 0.17 in4.3 mm
01:50 PM 73.0°F22.8°C 69.2°F20.7°C 88% 1.2 mph SW1.9 kmh SW 2.0 mph3.2 kmh 29.67 in1004.7 mb 0.01 in0.3 mm 0.00 in0.0 mm 0.17 in4.3 mm
01:45 PM 72.6°F22.6°C 69.2°F20.7°C 89% 1.0 mph WSW1.6 kmh WSW 2.0 mph3.2 kmh 29.67 in1004.7 mb 0.01 in0.3 mm 0.00 in0.0 mm 0.17 in4.3 mm
01:40 PM 72.3°F22.4°C 68.9°F20.5°C 89% 1.6 mph SSW2.6 kmh SSW 2.0 mph3.2 kmh 29.67 in1004.7 mb 0.01 in0.3 mm 0.00 in0.0 mm 0.17 in4.3 mm
01:35 PM 72.2°F22.3°C 69.1°F20.6°C 90% 1.1 mph SE1.8 kmh SE 2.0 mph3.2 kmh 29.68 in1005.1 mb 0.01 in0.3 mm 0.00 in0.0 mm 0.17 in4.3 mm
01:30 PM 72.0°F22.2°C 68.9°F20.5°C 90% Calm Calm 1.0 mph1.6 kmh 29.68 in1005.1 mb 0.01 in0.3 mm 0.00 in0.0 mm 0.17 in4.3 mm
01:24 PM 71.7°F22.1°C 68.6°F20.3°C 90% Calm Calm 1.0 mph1.6 kmh 29.67 in1004.7 mb 0.01 in0.3 mm 0.12 in3.0 mm 0.17 in4.3 mm
01:19 PM 71.6°F22.0°C 68.2°F20.1°C 89% Calm Calm 2.0 mph3.2 kmh 29.68 in1005.1 mb 0.00 in0.0 mm 0.00 in0.0 mm 0.17 in4.3 mm
01:14 PM 71.6°F22.0°C 67.9°F19.9°C 88% 1.0 mph WSW1.6 kmh WSW 2.0 mph3.2 kmh 29.69 in1005.4 mb 0.01 in0.3 mm 0.00 in0.0 mm 0.17 in4.3 mm
01:09 PM 71.8°F22.1°C 67.7°F19.8°C 87% Calm Calm 2.0 mph3.2 kmh 29.68 in1005.1 mb 0.01 in0.3 mm 0.00 in0.0 mm 0.17 in4.3 mm
01:04 PM 72.0°F22.2°C 67.9°F19.9°C 87% 1.1 mph SW1.8 kmh SW 4.0 mph6.4 kmh 29.68 in1005.1 mb 0.01 in0.3 mm 0.00 in0.0 mm 0.17 in4.3 mm
12:59 PM 72.1°F22.3°C 67.7°F19.8°C 86% Calm Calm 4.0 mph6.4 kmh 29.68 in1005.1 mb 0.01 in0.3 mm 0.00 in0.0 mm 0.17 in4.3 mm
12:54 PM 72.1°F22.3°C 67.7°F19.8°C 86% 1.0 mph N1.6 kmh N 4.0 mph6.4 kmh 29.68 in1005.1 mb 0.01 in0.3 mm 0.00 in0.0 mm 0.17 in4.3 mm
12:49 PM 72.1°F22.3°C 67.4°F19.7°C 85% 1.0 mph N1.6 kmh N 4.0 mph6.4 kmh 29.68 in1005.1 mb 0.01 in0.3 mm 0.00 in0.0 mm 0.17 in4.3 mm
12:44 PM 72.0°F22.2°C 67.6°F19.8°C 86% 1.3 mph SE2.1 kmh SE 2.0 mph3.2 kmh 29.67 in1004.7 mb 0.01 in0.3 mm 0.00 in0.0 mm 0.17 in4.3 mm
12:39 PM 71.8°F22.1°C 67.4°F19.7°C 86% 1.0 mph SE1.6 kmh SE 2.0 mph3.2 kmh 29.67 in1004.7 mb 0.01 in0.3 mm 0.00 in0.0 mm 0.17 in4.3 mm
12:34 PM 71.8°F22.1°C 67.4°F19.7°C 86% 1.0 mph WNW1.6 kmh WNW 2.0 mph3.2 kmh 29.67 in1004.7 mb 0.01 in0.3 mm 0.00 in0.0 mm 0.17 in4.3 mm
12:29 PM 71.9°F22.2°C 67.8°F19.9°C 87% Calm Calm 2.0 mph3.2 kmh 29.66 in1004.4 mb 0.02 in0.5 mm 0.00 in0.0 mm 0.17 in4.3 mm
12:24 PM 72.0°F22.2°C 67.6°F19.8°C 86% 1.0 mph SSW1.6 kmh SSW 3.0 mph4.8 kmh 29.67 in1004.7 mb 0.06 in1.5 mm 0.00 in0.0 mm 0.17 in4.3 mm
12:18 PM 72.6°F22.6°C 67.5°F19.7°C 84% 1.0 mph SW1.6 kmh SW 4.0 mph6.4 kmh 29.67 in1004.7 mb 0.17 in4.3 mm 0.12 in3.0 mm 0.17 in4.3 mm
12:13 PM 73.2°F22.9°C 67.4°F19.7°C 82% 1.0 mph NE1.6 kmh NE 5.0 mph8.0 kmh 29.67 in1004.7 mb 0.16 in4.1 mm 0.00 in0.0 mm 0.16 in4.1 mm
12:08 PM 74.2°F23.4°C 67.6°F19.8°C 80% 1.4 mph ESE2.3 kmh ESE 6.0 mph9.7 kmh 29.67 in1004.7 mb 0.16 in4.1 mm 0.00 in0.0 mm 0.16 in4.1 mm
12:03 PM 75.2°F24.0°C 67.5°F19.7°C 77% 1.8 mph NE2.9 kmh NE 6.0 mph9.7 kmh 29.68 in1005.1 mb 0.16 in4.1 mm 0.00 in0.0 mm 0.16 in4.1 mm
11:58 AM 75.3°F24.1°C 67.4°F19.7°C 76% 2.2 mph NNE3.5 kmh NNE 6.0 mph9.7 kmh 29.67 in1004.7 mb 0.16 in4.1 mm 0.00 in0.0 mm 0.16 in4.1 mm
11:53 AM 75.2°F24.0°C 68.0°F20.0°C 78% 3.0 mph NNW4.8 kmh NNW 6.0 mph9.7 kmh 29.67 in1004.7 mb 0.16 in4.1 mm 0.00 in0.0 mm 0.16 in4.1 mm
11:48 AM 74.6°F23.7°C 68.5°F20.3°C 81% 1.7 mph SE2.7 kmh SE 6.0 mph9.7 kmh 29.67 in1004.7 mb 0.16 in4.1 mm 0.00 in0.0 mm 0.16 in4.1 mm
11:43 AM 74.2°F23.4°C 69.7°F20.9°C 86% 1.9 mph E3.1 kmh E 5.0 mph8.0 kmh 29.67 in1004.7 mb 0.16 in4.1 mm 0.00 in0.0 mm 0.16 in4.1 mm
11:38 AM 74.0°F23.3°C 68.6°F20.3°C 83% 1.4 mph W2.3 kmh W 6.0 mph9.7 kmh 29.67 in1004.7 mb 0.16 in4.1 mm 0.00 in0.0 mm 0.16 in4.1 mm
11:32 AM 75.0°F23.9°C 68.2°F20.1°C 79% 1.0 mph ESE1.6 kmh ESE 6.0 mph9.7 kmh 29.67 in1004.7 mb 0.16 in4.1 mm 0.10 in2.5 mm 0.16 in4.1 mm
11:26 AM 77.4°F25.2°C 68.6°F20.3°C 74% 1.4 mph S2.3 kmh S 7.0 mph11.3 kmh 29.67 in1004.7 mb 0.15 in3.8 mm 0.94 in23.9 mm 0.15 in3.8 mm
11:19 AM 80.5°F26.9°C 68.8°F20.4°C 67% 1.7 mph SE2.7 kmh SE 4.0 mph6.4 kmh 29.67 in1004.7 mb 0.04 in1.0 mm 0.48 in12.2 mm 0.03 in0.8 mm
11:14 AM 81.6°F27.6°C 68.0°F20.0°C 63% Calm Calm 4.0 mph6.4 kmh 29.66 in1004.4 mb 0.00 in0.0 mm 0.00 in0.0 mm 0.00 in0.0 mm
11:09 AM 82.4°F28.0°C 67.9°F19.9°C 61% 1.5 mph SW2.4 kmh SW 5.0 mph8.0 kmh 29.66 in1004.4 mb 0.00 in0.0 mm 0.00 in0.0 mm 0.00 in0.0 mm
11:04 AM 83.1°F28.4°C 68.5°F20.3°C 61% 1.6 mph SSE2.6 kmh SSE 5.0 mph8.0 kmh 29.67 in1004.7 mb 0.00 in0.0 mm 0.00 in0.0 mm 0.00 in0.0 mm
10:59 AM 82.5°F28.1°C 69.4°F20.8°C 64% 1.2 mph SSE1.9 kmh SSE 5.0 mph8.0 kmh 29.66 in1004.4 mb 0.00 in0.0 mm 0.00 in0.0 mm 0.00 in0.0 mm
10:54 AM 82.2°F27.9°C 68.3°F20.2°C 63% 2.0 mph SE3.2 kmh SE 5.0 mph8.0 kmh 29.66 in1004.4 mb 0.00 in0.0 mm 0.00 in0.0 mm 0.00 in0.0 mm
10:49 AM 81.9°F27.7°C 68.8°F20.4°C 64% 1.5 mph SE2.4 kmh SE 5.0 mph8.0 kmh 29.67 in1004.7 mb 0.00 in0.0 mm 0.00 in0.0 mm 0.00 in0.0 mm
10:44 AM 81.4°F27.4°C 69.6°F20.9°C 67% 1.1 mph SW1.8 kmh SW 5.0 mph8.0 kmh 29.67 in1004.7 mb 0.00 in0.0 mm 0.00 in0.0 mm 0.00 in0.0 mm
10:39 AM 81.2°F27.3°C 69.0°F20.6°C 66% 1.9 mph SW3.1 kmh SW 5.0 mph8.0 kmh 29.67 in1004.7 mb 0.00 in0.0 mm 0.00 in0.0 mm 0.00 in0.0 mm
10:34 AM 80.6°F27.0°C 68.2°F20.1°C 66% 1.7 mph ESE2.7 kmh ESE 4.0 mph6.4 kmh 29.67 in1004.7 mb 0.00 in0.0 mm 0.00 in0.0 mm 0.00 in0.0 mm
10:29 AM 80.2°F26.8°C 70.2°F21.2°C 71% 1.3 mph SW2.1 kmh SW 5.0 mph8.0 kmh 29.67 in1004.7 mb 0.00 in0.0 mm 0.00 in0.0 mm 0.00 in0.0 mm
10:23 AM 79.5°F26.4°C 68.7°F20.4°C 69% 1.4 mph SSW2.3 kmh SSW 5.0 mph8.0 kmh 29.67 in1004.7 mb 0.00 in0.0 mm 0.00 in0.0 mm 0.00 in0.0 mm
10:18 AM 79.1°F26.2°C 68.3°F20.2°C 69% 1.6 mph S2.6 kmh S 5.0 mph8.0 kmh 29.67 in1004.7 mb 0.00 in0.0 mm 0.00 in0.0 mm 0.00 in0.0 mm
10:13 AM 79.5°F26.4°C 68.2°F20.1°C 68% 1.7 mph WSW2.7 kmh WSW 5.0 mph8.0 kmh 29.67 in1004.7 mb 0.00 in0.0 mm 0.00 in0.0 mm 0.00 in0.0 mm
10:08 AM 79.7°F26.5°C 68.9°F20.5°C 69% 1.3 mph SE2.1 kmh SE 4.0 mph6.4 kmh 29.67 in1004.7 mb 0.00 in0.0 mm 0.00 in0.0 mm 0.00 in0.0 mm
10:03 AM 79.9°F26.6°C 69.0°F20.6°C 69% 1.2 mph SW1.9 kmh SW 4.0 mph6.4 kmh 29.67 in1004.7 mb 0.00 in0.0 mm 0.00 in0.0 mm 0.00 in0.0 mm
09:58 AM 79.9°F26.6°C 69.5°F20.8°C 70% 1.1 mph S1.8 kmh S 4.0 mph6.4 kmh 29.67 in1004.7 mb 0.00 in0.0 mm 0.00 in0.0 mm 0.00 in0.0 mm
09:53 AM 80.3°F26.8°C 69.0°F20.6°C 68% 2.0 mph SE3.2 kmh SE 4.0 mph6.4 kmh 29.68 in1005.1 mb 0.00 in0.0 mm 0.00 in0.0 mm 0.00 in0.0 mm
09:48 AM 80.5°F26.9°C 69.2°F20.7°C 68% 1.6 mph SW2.6 kmh SW 4.0 mph6.4 kmh 29.68 in1005.1 mb 0.00 in0.0 mm 0.00 in0.0 mm 0.00 in0.0 mm
09:43 AM 80.0°F26.7°C 70.8°F21.6°C 73% 1.0 mph S1.6 kmh S 4.0 mph6.4 kmh 29.67 in1004.7 mb 0.00 in0.0 mm 0.00 in0.0 mm 0.00 in0.0 mm
09:38 AM 79.4°F26.3°C 69.8°F21.0°C 72% 1.0 mph E1.6 kmh E 4.0 mph6.4 kmh 29.67 in1004.7 mb 0.00 in0.0 mm 0.00 in0.0 mm 0.00 in0.0 mm
09:33 AM 78.9°F26.1°C 69.7°F20.9°C 73% 1.4 mph SE2.3 kmh SE 3.0 mph4.8 kmh 29.67 in1004.7 mb 0.00 in0.0 mm 0.00 in0.0 mm 0.00 in0.0 mm
09:27 AM 78.4°F25.8°C 70.0°F21.1°C 75% 1.0 mph SE1.6 kmh SE 4.0 mph6.4 kmh 29.67 in1004.7 mb 0.00 in0.0 mm 0.00 in0.0 mm 0.00 in0.0 mm
09:22 AM 78.1°F25.6°C 69.1°F20.6°C 74% 1.2 mph S1.9 kmh S 4.0 mph6.4 kmh 29.67 in1004.7 mb 0.00 in0.0 mm 0.00 in0.0 mm 0.00 in0.0 mm
09:17 AM 78.0°F25.6°C 69.4°F20.8°C 75% 1.9 mph SSW3.1 kmh SSW 4.0 mph6.4 kmh 29.68 in1005.1 mb 0.00 in0.0 mm 0.00 in0.0 mm 0.00 in0.0 mm
09:12 AM 78.5°F25.8°C 69.3°F20.7°C 73% 1.4 mph SW2.3 kmh SW 4.0 mph6.4 kmh 29.68 in1005.1 mb 0.00 in0.0 mm 0.00 in0.0 mm 0.00 in0.0 mm
09:07 AM 79.1°F26.2°C 69.5°F20.8°C 72% 1.2 mph SSW1.9 kmh SSW 4.0 mph6.4 kmh 29.68 in1005.1 mb 0.00 in0.0 mm 0.00 in0.0 mm 0.00 in0.0 mm
09:02 AM 79.2°F26.2°C 70.0°F21.1°C 73% 1.1 mph NNE1.8 kmh NNE 4.0 mph6.4 kmh 29.68 in1005.1 mb 0.00 in0.0 mm 0.00 in0.0 mm 0.00 in0.0 mm
08:57 AM 78.7°F25.9°C 69.9°F21.1°C 74% 1.1 mph E1.8 kmh E 4.0 mph6.4 kmh 29.68 in1005.1 mb 0.00 in0.0 mm 0.00 in0.0 mm 0.00 in0.0 mm
08:52 AM 78.2°F25.7°C 69.2°F20.7°C 74% 1.9 mph SE3.1 kmh SE 4.0 mph6.4 kmh 29.68 in1005.1 mb 0.00 in0.0 mm 0.00 in0.0 mm 0.00 in0.0 mm
08:47 AM 77.9°F25.5°C 69.5°F20.8°C 75% 1.7 mph ESE2.7 kmh ESE 3.0 mph4.8 kmh 29.68 in1005.1 mb 0.00 in0.0 mm 0.00 in0.0 mm 0.00 in0.0 mm
08:42 AM 77.5°F25.3°C 69.1°F20.6°C 75% Calm Calm 2.0 mph3.2 kmh 29.68 in1005.1 mb 0.00 in0.0 mm 0.00 in0.0 mm 0.00 in0.0 mm
08:36 AM 77.6°F25.3°C 69.2°F20.7°C 75% 1.0 mph S1.6 kmh S 2.0 mph3.2 kmh 29.68 in1005.1 mb 0.00 in0.0 mm 0.00 in0.0 mm 0.00 in0.0 mm
08:31 AM 77.4°F25.2°C 69.4°F20.8°C 76% 1.1 mph SE1.8 kmh SE 2.0 mph3.2 kmh 29.68 in1005.1 mb 0.00 in0.0 mm 0.00 in0.0 mm 0.00 in0.0 mm
08:26 AM 77.0°F25.0°C 69.0°F20.6°C 76% 1.0 mph NW1.6 kmh NW 2.0 mph3.2 kmh 29.68 in1005.1 mb 0.00 in0.0 mm 0.00 in0.0 mm 0.00 in0.0 mm
08:21 AM 76.9°F24.9°C 68.9°F20.5°C 76% 1.1 mph W1.8 kmh W 2.0 mph3.2 kmh 29.68 in1005.1 mb 0.00 in0.0 mm 0.00 in0.0 mm 0.00 in0.0 mm
08:16 AM 77.0°F25.0°C 69.0°F20.6°C 76% 1.0 mph E1.6 kmh E 2.0 mph3.2 kmh 29.68 in1005.1 mb 0.00 in0.0 mm 0.00 in0.0 mm 0.00 in0.0 mm
08:11 AM 76.8°F24.9°C 69.2°F20.7°C 77% Calm Calm 2.0 mph3.2 kmh 29.68 in1005.1 mb 0.00 in0.0 mm 0.00 in0.0 mm 0.00 in0.0 mm
08:06 AM 76.4°F24.7°C 69.0°F20.6°C 78% 1.3 mph S2.1 kmh S 2.0 mph3.2 kmh 29.67 in1004.7 mb 0.00 in0.0 mm 0.00 in0.0 mm 0.00 in0.0 mm
08:01 AM 76.0°F24.4°C 68.4°F20.2°C 77% 1.1 mph SW1.8 kmh SW 3.0 mph4.8 kmh 29.67 in1004.7 mb 0.00 in0.0 mm 0.00 in0.0 mm 0.00 in0.0 mm
07:56 AM 75.6°F24.2°C 69.1°F20.6°C 80% 1.2 mph SSE1.9 kmh SSE 3.0 mph4.8 kmh 29.67 in1004.7 mb 0.00 in0.0 mm 0.00 in0.0 mm 0.00 in0.0 mm
07:51 AM 74.9°F23.8°C 68.8°F20.4°C 81% 1.5 mph WSW2.4 kmh WSW 3.0 mph4.8 kmh 29.67 in1004.7 mb 0.00 in0.0 mm 0.00 in0.0 mm 0.00 in0.0 mm
07:46 AM 73.8°F23.2°C 68.4°F20.2°C 83% 1.3 mph SSW2.1 kmh SSW 4.0 mph6.4 kmh 29.67 in1004.7 mb 0.00 in0.0 mm 0.00 in0.0 mm 0.00 in0.0 mm
07:41 AM 73.0°F22.8°C 67.9°F19.9°C 84% Calm Calm 4.0 mph6.4 kmh 29.67 in1004.7 mb 0.00 in0.0 mm 0.00 in0.0 mm 0.00 in0.0 mm
07:36 AM 72.3°F22.4°C 67.5°F19.7°C 85% 1.0 mph SSW1.6 kmh SSW 4.0 mph6.4 kmh 29.67 in1004.7 mb 0.00 in0.0 mm 0.00 in0.0 mm 0.00 in0.0 mm
07:31 AM 71.9°F22.2°C 67.5°F19.7°C 86% 1.0 mph SSE1.6 kmh SSE 3.0 mph4.8 kmh 29.67 in1004.7 mb 0.00 in0.0 mm 0.00 in0.0 mm 0.00 in0.0 mm
07:26 AM 71.5°F21.9°C 67.4°F19.7°C 87% 1.0 mph E1.6 kmh E 3.0 mph4.8 kmh 29.67 in1004.7 mb 0.00 in0.0 mm 0.00 in0.0 mm 0.00 in0.0 mm
07:21 AM 71.2°F21.8°C 67.1°F19.5°C 87% 1.3 mph SSW2.1 kmh SSW 3.0 mph4.8 kmh 29.67 in1004.7 mb 0.00 in0.0 mm 0.00 in0.0 mm 0.00 in0.0 mm
07:15 AM 70.8°F21.6°C 66.7°F19.3°C 87% 1.0 mph WSW1.6 kmh WSW 2.0 mph3.2 kmh 29.67 in1004.7 mb 0.00 in0.0 mm 0.00 in0.0 mm 0.00 in0.0 mm
07:10 AM 70.5°F21.4°C 67.1°F19.5°C 89% 1.0 mph WSW1.6 kmh WSW 3.0 mph4.8 kmh 29.67 in1004.7 mb 0.00 in0.0 mm 0.00 in0.0 mm 0.00 in0.0 mm
07:05 AM 70.1°F21.2°C 67.0°F19.4°C 90% 1.0 mph SE1.6 kmh SE 3.0 mph4.8 kmh 29.67 in1004.7 mb 0.00 in0.0 mm 0.00 in0.0 mm 0.00 in0.0 mm
07:00 AM 69.7°F20.9°C 66.6°F19.2°C 90% Calm Calm 3.0 mph4.8 kmh 29.67 in1004.7 mb 0.00 in0.0 mm 0.00 in0.0 mm 0.00 in0.0 mm
06:55 AM 69.5°F20.8°C 66.7°F19.3°C 91% 1.0 mph S1.6 kmh S 3.0 mph4.8 kmh 29.67 in1004.7 mb 0.00 in0.0 mm 0.00 in0.0 mm 0.00 in0.0 mm
06:50 AM 69.2°F20.7°C 66.5°F19.2°C 91% 1.9 mph SW3.1 kmh SW 3.0 mph4.8 kmh 29.67 in1004.7 mb 0.00 in0.0 mm 0.00 in0.0 mm 0.00 in0.0 mm
06:45 AM 68.9°F20.5°C 66.5°F19.2°C 92% 1.2 mph WSW1.9 kmh WSW 2.0 mph3.2 kmh 29.67 in1004.7 mb 0.00 in0.0 mm 0.00 in0.0 mm 0.00 in0.0 mm
06:40 AM 68.6°F20.3°C 66.2°F19.0°C 92% 1.0 mph SE1.6 kmh SE 2.0 mph3.2 kmh 29.66 in1004.4 mb 0.00 in0.0 mm 0.00 in0.0 mm 0.00 in0.0 mm
06:35 AM 68.4°F20.2°C 66.3°F19.1°C 93% 1.3 mph S2.1 kmh S 2.0 mph3.2 kmh 29.66 in1004.4 mb 0.00 in0.0 mm 0.00 in0.0 mm 0.00 in0.0 mm
06:30 AM 68.2°F20.1°C 66.4°F19.1°C 94% Calm Calm 5.0 mph8.0 kmh 29.66 in1004.4 mb 0.00 in0.0 mm 0.00 in0.0 mm 0.00 in0.0 mm
06:25 AM 68.0°F20.0°C 66.2°F19.0°C 94% 1.0 mph SSW1.6 kmh SSW 5.0 mph8.0 kmh 29.66 in1004.4 mb 0.00 in0.0 mm 0.00 in0.0 mm 0.00 in0.0 mm
06:20 AM 67.8°F19.9°C 66.0°F18.9°C 94% 1.2 mph WSW1.9 kmh WSW 5.0 mph8.0 kmh 29.66 in1004.4 mb 0.00 in0.0 mm 0.00 in0.0 mm 0.00 in0.0 mm
06:15 AM 67.6°F19.8°C 66.1°F18.9°C 95% 1.7 mph SSW2.7 kmh SSW 5.0 mph8.0 kmh 29.66 in1004.4 mb 0.00 in0.0 mm 0.00 in0.0 mm 0.00 in0.0 mm
06:10 AM 67.4°F19.7°C 65.9°F18.8°C 95% 1.1 mph S1.8 kmh S 2.0 mph3.2 kmh 29.66 in1004.4 mb 0.00 in0.0 mm 0.00 in0.0 mm 0.00 in0.0 mm
06:05 AM 67.2°F19.6°C 65.7°F18.7°C 95% 1.0 mph E1.6 kmh E 1.0 mph1.6 kmh 29.67 in1004.7 mb 0.00 in0.0 mm 0.00 in0.0 mm 0.00 in0.0 mm
06:00 AM 67.1°F19.5°C 65.9°F18.8°C 96% Calm Calm 2.0 mph3.2 kmh 29.66 in1004.4 mb 0.00 in0.0 mm 0.00 in0.0 mm 0.00 in0.0 mm
05:55 AM 66.9°F19.4°C 65.7°F18.7°C 96% Calm Calm 2.0 mph3.2 kmh 29.66 in1004.4 mb 0.00 in0.0 mm 0.00 in0.0 mm 0.00 in0.0 mm
05:50 AM 66.8°F19.3°C 65.6°F18.7°C 96% 1.0 mph S1.6 kmh S 2.0 mph3.2 kmh 29.66 in1004.4 mb 0.00 in0.0 mm 0.00 in0.0 mm 0.00 in0.0 mm
05:45 AM 66.7°F19.3°C 65.5°F18.6°C 96% Calm Calm 2.0 mph3.2 kmh 29.67 in1004.7 mb 0.00 in0.0 mm 0.00 in0.0 mm 0.00 in0.0 mm
05:40 AM 66.6°F19.2°C 65.4°F18.6°C 96% 1.0 mph S1.6 kmh S 2.0 mph3.2 kmh 29.67 in1004.7 mb 0.00 in0.0 mm 0.00 in0.0 mm 0.00 in0.0 mm
05:35 AM 66.4°F19.1°C 65.2°F18.4°C 96% 1.0 mph SW1.6 kmh SW 2.0 mph3.2 kmh 29.67 in1004.7 mb 0.00 in0.0 mm 0.00 in0.0 mm 0.00 in0.0 mm
05:29 AM 66.4°F19.1°C 65.2°F18.4°C 96% 1.0 mph SW1.6 kmh SW 2.0 mph3.2 kmh 29.67 in1004.7 mb 0.00 in0.0 mm 0.00 in0.0 mm 0.00 in0.0 mm
05:24 AM 66.3°F19.1°C 65.1°F18.4°C 96% 1.0 mph SW1.6 kmh SW 3.0 mph4.8 kmh 29.67 in1004.7 mb 0.00 in0.0 mm 0.00 in0.0 mm 0.00 in0.0 mm
05:19 AM 66.2°F19.0°C 65.0°F18.3°C 96% 1.3 mph SSW2.1 kmh SSW 3.0 mph4.8 kmh 29.67 in1004.7 mb 0.00 in0.0 mm 0.00 in0.0 mm 0.00 in0.0 mm
05:14 AM 66.2°F19.0°C 65.0°F18.3°C 96% 1.0 mph SW1.6 kmh SW 3.0 mph4.8 kmh 29.67 in1004.7 mb 0.00 in0.0 mm 0.00 in0.0 mm 0.00 in0.0 mm
05:09 AM 66.0°F18.9°C 64.8°F18.2°C 96% 1.4 mph WSW2.3 kmh WSW 3.0 mph4.8 kmh 29.67 in1004.7 mb 0.00 in0.0 mm 0.00 in0.0 mm 0.00 in0.0 mm
05:04 AM 65.9°F18.8°C 64.7°F18.2°C 96% 1.0 mph SE1.6 kmh SE 1.0 mph1.6 kmh 29.67 in1004.7 mb 0.00 in0.0 mm 0.00 in0.0 mm 0.00 in0.0 mm
04:59 AM 65.9°F18.8°C 64.7°F18.2°C 96% 1.0 mph S1.6 kmh S 1.0 mph1.6 kmh 29.67 in1004.7 mb 0.00 in0.0 mm 0.00 in0.0 mm 0.00 in0.0 mm
04:54 AM 65.9°F18.8°C 64.7°F18.2°C 96% Calm Calm 1.0 mph1.6 kmh 29.67 in1004.7 mb 0.00 in0.0 mm 0.00 in0.0 mm 0.00 in0.0 mm
04:49 AM 65.9°F18.8°C 64.7°F18.2°C 96% Calm Calm 1.0 mph1.6 kmh 29.66 in1004.4 mb 0.00 in0.0 mm 0.00 in0.0 mm 0.00 in0.0 mm
04:44 AM 66.0°F18.9°C 64.8°F18.2°C 96% Calm Calm 1.0 mph1.6 kmh 29.66 in1004.4 mb 0.00 in0.0 mm 0.00 in0.0 mm 0.00 in0.0 mm
04:39 AM 66.0°F18.9°C 64.5°F18.1°C 95% Calm Calm 1.0 mph1.6 kmh 29.66 in1004.4 mb 0.00 in0.0 mm 0.00 in0.0 mm 0.00 in0.0 mm
04:34 AM 66.1°F18.9°C 64.6°F18.1°C 95% 1.0 mph SW1.6 kmh SW 1.0 mph1.6 kmh 29.67 in1004.7 mb 0.00 in0.0 mm 0.00 in0.0 mm 0.00 in0.0 mm
04:29 AM 66.2°F19.0°C 64.7°F18.2°C 95% Calm Calm 1.0 mph1.6 kmh 29.67 in1004.7 mb 0.00 in0.0 mm 0.00 in0.0 mm 0.00 in0.0 mm
04:24 AM 66.3°F19.1°C 64.8°F18.2°C 95% Calm Calm 1.0 mph1.6 kmh 29.66 in1004.4 mb 0.00 in0.0 mm 0.00 in0.0 mm 0.00 in0.0 mm
04:18 AM 66.4°F19.1°C 64.9°F18.3°C 95% Calm Calm 1.0 mph1.6 kmh 29.66 in1004.4 mb 0.00 in0.0 mm 0.00 in0.0 mm 0.00 in0.0 mm
04:13 AM 66.6°F19.2°C 65.1°F18.4°C 95% Calm Calm 1.0 mph1.6 kmh 29.66 in1004.4 mb 0.00 in0.0 mm 0.00 in0.0 mm 0.00 in0.0 mm
04:08 AM 66.6°F19.2°C 64.8°F18.2°C 94% 1.0 mph SW1.6 kmh SW 1.0 mph1.6 kmh 29.66 in1004.4 mb 0.00 in0.0 mm 0.00 in0.0 mm 0.00 in0.0 mm
04:03 AM 66.9°F19.4°C 65.1°F18.4°C 94% Calm Calm 1.0 mph1.6 kmh 29.66 in1004.4 mb 0.00 in0.0 mm 0.00 in0.0 mm 0.00 in0.0 mm
03:58 AM 67.1°F19.5°C 65.3°F18.5°C 94% Calm Calm 1.0 mph1.6 kmh 29.66 in1004.4 mb 0.00 in0.0 mm 0.00 in0.0 mm 0.00 in0.0 mm
03:53 AM 67.2°F19.6°C 65.4°F18.6°C 94% 1.0 mph SW1.6 kmh SW 1.0 mph1.6 kmh 29.66 in1004.4 mb 0.00 in0.0 mm 0.00 in0.0 mm 0.00 in0.0 mm
03:48 AM 67.3°F19.6°C 65.5°F18.6°C 94% Calm Calm 1.0 mph1.6 kmh 29.65 in1004.1 mb 0.00 in0.0 mm 0.00 in0.0 mm 0.00 in0.0 mm
03:43 AM 67.3°F19.6°C 65.5°F18.6°C 94% 1.0 mph SW1.6 kmh SW 1.0 mph1.6 kmh 29.65 in1004.1 mb 0.00 in0.0 mm 0.00 in0.0 mm 0.00 in0.0 mm
03:38 AM 67.3°F19.6°C 65.5°F18.6°C 94% Calm Calm 4.0 mph6.4 kmh 29.65 in1004.1 mb 0.00 in0.0 mm 0.00 in0.0 mm 0.00 in0.0 mm
03:33 AM 67.4°F19.7°C 65.6°F18.7°C 94% Calm Calm 4.0 mph6.4 kmh 29.65 in1004.1 mb 0.00 in0.0 mm 0.00 in0.0 mm 0.00 in0.0 mm
03:28 AM 67.4°F19.7°C 65.6°F18.7°C 94% Calm Calm 4.0 mph6.4 kmh 29.65 in1004.1 mb 0.00 in0.0 mm 0.00 in0.0 mm 0.00 in0.0 mm
03:23 AM 67.4°F19.7°C 65.6°F18.7°C 94% 1.0 mph E1.6 kmh E 4.0 mph6.4 kmh 29.65 in1004.1 mb 0.00 in0.0 mm 0.00 in0.0 mm 0.00 in0.0 mm
03:18 AM 67.4°F19.7°C 65.6°F18.7°C 94% Calm Calm 2.0 mph3.2 kmh 29.65 in1004.1 mb 0.00 in0.0 mm 0.00 in0.0 mm 0.00 in0.0 mm
03:13 AM 67.4°F19.7°C 65.6°F18.7°C 94% 1.1 mph SSW1.8 kmh SSW 4.0 mph6.4 kmh 29.65 in1004.1 mb 0.00 in0.0 mm 0.00 in0.0 mm 0.00 in0.0 mm
03:08 AM 67.3°F19.6°C 65.5°F18.6°C 94% 1.0 mph SSE1.6 kmh SSE 4.0 mph6.4 kmh 29.65 in1004.1 mb 0.00 in0.0 mm 0.00 in0.0 mm 0.00 in0.0 mm
03:03 AM 67.3°F19.6°C 65.5°F18.6°C 94% 1.0 mph N1.6 kmh N 4.0 mph6.4 kmh 29.65 in1004.1 mb 0.00 in0.0 mm 0.00 in0.0 mm 0.00 in0.0 mm
02:58 AM 67.3°F19.6°C 65.8°F18.8°C 95% 1.4 mph WNW2.3 kmh WNW 4.0 mph6.4 kmh 29.65 in1004.1 mb 0.00 in0.0 mm 0.00 in0.0 mm 0.00 in0.0 mm
02:53 AM 67.3°F19.6°C 65.5°F18.6°C 94% 1.2 mph SSW1.9 kmh SSW 2.0 mph3.2 kmh 29.65 in1004.1 mb 0.00 in0.0 mm 0.00 in0.0 mm 0.00 in0.0 mm
02:47 AM 67.3°F19.6°C 65.5°F18.6°C 94% 1.0 mph NW1.6 kmh NW 2.0 mph3.2 kmh 29.65 in1004.1 mb 0.00 in0.0 mm 0.00 in0.0 mm 0.00 in0.0 mm
02:42 AM 67.3°F19.6°C 65.5°F18.6°C 94% 1.0 mph WSW1.6 kmh WSW 2.0 mph3.2 kmh 29.65 in1004.1 mb 0.00 in0.0 mm 0.00 in0.0 mm 0.00 in0.0 mm
02:37 AM 67.3°F19.6°C 65.8°F18.8°C 95% 1.0 mph SSW1.6 kmh SSW 2.0 mph3.2 kmh 29.65 in1004.1 mb 0.00 in0.0 mm 0.00 in0.0 mm 0.00 in0.0 mm
02:32 AM 67.3°F19.6°C 65.8°F18.8°C 95% 1.0 mph SW1.6 kmh SW 2.0 mph3.2 kmh 29.65 in1004.1 mb 0.00 in0.0 mm 0.00 in0.0 mm 0.00 in0.0 mm
02:27 AM 67.2°F19.6°C 65.7°F18.7°C 95% 1.0 mph SSW1.6 kmh SSW 2.0 mph3.2 kmh 29.65 in1004.1 mb 0.00 in0.0 mm 0.00 in0.0 mm 0.00 in0.0 mm
02:22 AM 67.2°F19.6°C 65.7°F18.7°C 95% 1.0 mph W1.6 kmh W 1.0 mph1.6 kmh 29.65 in1004.1 mb 0.00 in0.0 mm 0.00 in0.0 mm 0.00 in0.0 mm
02:17 AM 67.1°F19.5°C 65.6°F18.7°C 95% Calm Calm 1.0 mph1.6 kmh 29.65 in1004.1 mb 0.00 in0.0 mm 0.00 in0.0 mm 0.00 in0.0 mm
02:12 AM 67.0°F19.4°C 65.5°F18.6°C 95% Calm Calm 1.0 mph1.6 kmh 29.65 in1004.1 mb 0.00 in0.0 mm 0.00 in0.0 mm 0.00 in0.0 mm
02:07 AM 67.0°F19.4°C 65.5°F18.6°C 95% Calm Calm 1.0 mph1.6 kmh 29.64 in1003.7 mb 0.00 in0.0 mm 0.00 in0.0 mm 0.00 in0.0 mm
02:02 AM 66.9°F19.4°C 65.4°F18.6°C 95% Calm Calm 1.0 mph1.6 kmh 29.65 in1004.1 mb 0.00 in0.0 mm 0.00 in0.0 mm 0.00 in0.0 mm
01:57 AM 66.9°F19.4°C 65.4°F18.6°C 95% 1.0 mph SE1.6 kmh SE 1.0 mph1.6 kmh 29.65 in1004.1 mb 0.00 in0.0 mm 0.00 in0.0 mm 0.00 in0.0 mm
01:52 AM 66.8°F19.3°C 65.3°F18.5°C 95% Calm Calm 2.0 mph3.2 kmh 29.65 in1004.1 mb 0.00 in0.0 mm 0.00 in0.0 mm 0.00 in0.0 mm
01:47 AM 66.8°F19.3°C 65.3°F18.5°C 95% Calm Calm 2.0 mph3.2 kmh 29.65 in1004.1 mb 0.00 in0.0 mm 0.00 in0.0 mm 0.00 in0.0 mm
01:42 AM 66.8°F19.3°C 65.3°F18.5°C 95% Calm Calm 2.0 mph3.2 kmh 29.65 in1004.1 mb 0.00 in0.0 mm 0.00 in0.0 mm 0.00 in0.0 mm
01:37 AM 66.8°F19.3°C 65.0°F18.3°C 94% 1.3 mph S2.1 kmh S 2.0 mph3.2 kmh 29.65 in1004.1 mb 0.00 in0.0 mm 0.00 in0.0 mm 0.00 in0.0 mm
01:31 AM 66.9°F19.4°C 65.1°F18.4°C 94% Calm Calm 1.0 mph1.6 kmh 29.65 in1004.1 mb 0.00 in0.0 mm 0.00 in0.0 mm 0.00 in0.0 mm
01:26 AM 67.0°F19.4°C 65.2°F18.4°C 94% Calm Calm 1.0 mph1.6 kmh 29.65 in1004.1 mb 0.00 in0.0 mm 0.00 in0.0 mm 0.00 in0.0 mm
01:21 AM 67.1°F19.5°C 65.3°F18.5°C 94% Calm Calm 2.0 mph3.2 kmh 29.65 in1004.1 mb 0.00 in0.0 mm 0.00 in0.0 mm 0.00 in0.0 mm
01:16 AM 67.2°F19.6°C 65.4°F18.6°C 94% Calm Calm 2.0 mph3.2 kmh 29.65 in1004.1 mb 0.00 in0.0 mm 0.00 in0.0 mm 0.00 in0.0 mm
01:11 AM 67.3°F19.6°C 65.2°F18.4°C 93% Calm Calm 2.0 mph3.2 kmh 29.65 in1004.1 mb 0.00 in0.0 mm 0.00 in0.0 mm 0.00 in0.0 mm
01:06 AM 67.3°F19.6°C 65.2°F18.4°C 93% 1.1 mph S1.8 kmh S 2.0 mph3.2 kmh 29.65 in1004.1 mb 0.00 in0.0 mm 0.00 in0.0 mm 0.00 in0.0 mm
01:01 AM 67.4°F19.7°C 65.3°F18.5°C 93% 1.0 mph ESE1.6 kmh ESE 2.0 mph3.2 kmh 29.65 in1004.1 mb 0.00 in0.0 mm 0.00 in0.0 mm 0.00 in0.0 mm
12:56 AM 67.5°F19.7°C 65.4°F18.6°C 93% Calm Calm 2.0 mph3.2 kmh 29.65 in1004.1 mb 0.00 in0.0 mm 0.00 in0.0 mm 0.00 in0.0 mm
12:51 AM 67.5°F19.7°C 65.4°F18.6°C 93% 1.0 mph ESE1.6 kmh ESE 3.0 mph4.8 kmh 29.64 in1003.7 mb 0.00 in0.0 mm 0.00 in0.0 mm 0.00 in0.0 mm
12:46 AM 67.5°F19.7°C 65.4°F18.6°C 93% 1.5 mph SW2.4 kmh SW 3.0 mph4.8 kmh 29.65 in1004.1 mb 0.00 in0.0 mm 0.00 in0.0 mm 0.00 in0.0 mm
12:41 AM 67.5°F19.7°C 65.4°F18.6°C 93% Calm Calm 3.0 mph4.8 kmh 29.64 in1003.7 mb 0.00 in0.0 mm 0.00 in0.0 mm 0.00 in0.0 mm
12:36 AM 67.6°F19.8°C 65.2°F18.4°C 92% 1.0 mph WNW1.6 kmh WNW 3.0 mph4.8 kmh 29.65 in1004.1 mb 0.00 in0.0 mm 0.00 in0.0 mm 0.00 in0.0 mm
12:31 AM 67.7°F19.8°C 65.3°F18.5°C 92% 1.6 mph SW2.6 kmh SW 3.0 mph4.8 kmh 29.65 in1004.1 mb 0.00 in0.0 mm 0.00 in0.0 mm 0.00 in0.0 mm
12:26 AM 67.9°F19.9°C 65.5°F18.6°C 92% 1.0 mph ESE1.6 kmh ESE 2.0 mph3.2 kmh 29.64 in1003.7 mb 0.00 in0.0 mm 0.00 in0.0 mm 0.00 in0.0 mm
12:21 AM 68.1°F20.1°C 65.3°F18.5°C 91% Calm Calm 2.0 mph3.2 kmh 29.65 in1004.1 mb 0.00 in0.0 mm 0.00 in0.0 mm 0.00 in0.0 mm
12:16 AM 68.2°F20.1°C 65.4°F18.6°C 91% 1.0 mph S1.6 kmh S 2.0 mph3.2 kmh 29.64 in1003.7 mb 0.00 in0.0 mm 0.00 in0.0 mm 0.00 in0.0 mm
12:11 AM 68.3°F20.2°C 65.6°F18.7°C 91% 1.0 mph SE1.6 kmh SE 2.0 mph3.2 kmh 29.64 in1003.7 mb 0.00 in0.0 mm 0.00 in0.0 mm 0.00 in0.0 mm
12:05 AM 68.4°F20.2°C 65.6°F18.7°C 91% 1.0 mph WSW1.6 kmh WSW 3.0 mph4.8 kmh 29.65 in1004.1 mb 0.00 in0.0 mm 0.00 in0.0 mm 0.00 in0.0 mm
12:00 AM 68.5°F20.3°C 65.7°F18.7°C 91% 1.1 mph SSW1.8 kmh SSW 3.0 mph4.8 kmh 29.64 in1003.7 mb 0.00 in0.0 mm 0.00 in0.0 mm 0.00 in0.0 mm